Latest Observation

42 Stations

15 Minute Data | America/Los_Angeles
as of 5/5/26 9:53 PM PDT
Station Date Time Temp (°F) RH (%) Dew Pt (°F) Wind Spd (mph) Wind Dir (°) Wind Gust (mph) Latest Rain (In) Daily Rain (In) Daily Min Temp (°F) Daily Max Temp (°F) Daily Max Wind (mph)
Elk Mt. Farm 5/5/26 2145 55.4   3.5 - - - - - - - 47.3   0.1 73.7   14.4 -
Upper Lake 5/5/26 2145 55.4   3.7 86   4 51.2   2.5 2.9 WNW | 294 8.4   1.3 0.00 0.00 48.9   1.5 72.9   13.8 14.9   1.5
Scotts Valley 5/5/26 2145 55.2   3.7 84   6 50.4   1.9 1.1 W | 268 3.5   1.3 0.00 0.00 44.4   5.7 72.3   12.5 14.9   2.7
Scotts Valley-South (Bella Vista) 5/5/26 2145 54.7   3.6 80   4 48.8   2.3 0.6 NW | 316 1.8   4.5 0.00 0.00 45.5   4.3 70.8   11.1 14.8   2.5
Kelseyville 5/5/26 2145 57.1   5.5 80   10 51.0   2.3 4.1 SSW | 193 6.6   3.7 0.00 0.00 47.8   2.8 71.6   13.4 15.8   2.2
Kelseyville Remote 5/5/26 2130 57.6   4.8 71   9 48.2   1.4 - - - 0.00 0.00 48.7   3.0 72.6   13.3 -
Kelseyville (Clark Drive) 5/5/26 2145 56.2   4.6 - - - - - 0.00 0.00 48.9   1.7 73.0   14.4 -
Kelsey Bench (Oaklea) 5/5/26 2145 55.1   4.8 80   10 49.1   1.5 0.0 N | 0 0.0   0.0 0.00 0.00 47.3   1.7 70.0   12.9 14.6   2.6
Smith Lane (Kelseyville-South) 5/5/26 2145 55.9   4.7 81   12 50.2   0.9 5.0 SSW | 210 9.3   1.1 0.00 0.00 47.4   3.3 70.9   12.1 16.6   2.8
Bell Hill-West 5/5/26 2145 55.5   3.0 90   5 52.8   1.5 3.3 SW | 218 7.4   1.0 0.00 0.00 46.9   3.8 70.3   12.0 15.2   3.4
High Valley Ridgeline (Brassfield) 5/5/26 2145 53.7   5.8 85   12 49.4   2.2 7.8 WSW | 252 12.6   5.8 0.00 0.00 46.1   1.0 67.5   15.0 19.6   3.5
Wight Way (Adobe Creek) 5/5/26 2100 57.2   5.0 79   8 50.8   2.5 2.7 WNW | 284 6.4   0.4 0.00 0.00 46.3   4.0 71.4   10.3 13.3   1.0
Ridgeline Top (Brassfield) 5/5/26 2145 53.5   5.6 - - - - - - - 46.1   1.0 69.8   15.9 -
Ridgeline Low (Brassfield) 5/5/26 2145 55.6   6.0 - - - - - - - 48.0   0.9 68.6   14.0 -
Long Valley (Shannon) 5/5/26 2145 60.7   8.0 77   13 53.6   3.6 1.2 N | 352 3.4   3.6 0.00 0.00 48.9   1.9 70.6   9.1 15.3   6.9
High Valley Winery 5/5/26 2145 56.4   6.1 78   12 49.7   2.2 4.6 W | 266 9.0   5.0 0.00 0.00 48.3   4.0 68.0   10.1 16.0   3.7
Round Mtn Rd. 5/5/26 2015 59.0   7.3 - - - - - - - 46.9   1.4 67.8   10.5 -
Circle O 5/5/26 2145 56.1   6.3 - - - - - - - 46.2   0.5 68.3   11.4 -
Robertsbridge Vineyards 5/5/26 2145 55.5   5.0 83   10 50.4   2.0 - - - - - 47.0   1.8 71.3   11.7 -
Urgency Vineyard 5/5/26 2145 56.0   5.8 81   9 50.3   2.9 2.9 W | 278 6.7   2.2 0.00 0.00 48.1   0.8 71.1   11.2 11.6   0.4
Red Hills (Beckstoffer) 5/5/26 2145 56.1   5.9 83   9 51.0   2.9 - - - 0.00 0.00 48.3   0.6 71.5   11.6 -
Winters (Shannon) 5/5/26 2145 55.2   5.9 81   8 49.4   3.4 4.5 WNW | 286 8.0   2.4 0.00 0.00 47.0   1.3 68.0   10.7 14.8   1.2
Secret Pond (Shannon) 5/5/26 2145 55.4   7.0 80   9 49.6   4.0 2.8 W | 278 4.7   6.6 0.00 0.00 46.4   1.1 67.5   8.8 16.1   3.5
Rolling Knolls (Shannon) 5/5/26 2145 57.0   5.1 80   3 50.7   4.0 0.6 NE | 34 1.8   5.8 0.00 0.00 49.3   0.8 68.8   7.8 12.7   0.4
Lower Lake 5/5/26 2145 56.6   4.9 83   3 51.5   3.7 2.7 ESE | 114 4.7   7.6 0.00 0.00 49.7   0.7 67.8   6.9 19.0   3.7
Adamson Ranch 5/5/26 2145 57.3   5.2 83   10 52.2   2.1 0.2 SE | 131 1.5   1.3 0.00 0.00 50.5   0.0 70.0   8.5 12.3   1.8
Middletown (Diamond D) 5/5/26 2145 57.2   3.9 81   8 51.6   1.3 3.2 ENE | 78 8.8   4.4 0.00 0.01 51.4   3.4 65.8   1.2 18.3   3.9
Middletown-West (Domaine Helena) 5/5/26 2145 55.2   3.3 86   6 51.2   1.5 4.5 SSW | 206 10.7   1.4 0.00 0.01 50.0   2.7 65.1   0.1 20.2   4.5
Middletown-South 5/5/26 2145 56.3   3.4 81   7 50.4   1.1 1.4 SE | 141 5.2   5.5 0.00 0.00 50.3   3.1 65.1   1.2 19.0   2.1
Jim Davis (Langtry) 5/5/26 2145 57.1   5.8 83   11 52.0   2.4 3.0 ESE | 108 5.8   3.0 0.00 0.05 51.0   3.1 67.1   3.6 12.7   1.0
Napa Valley Basin 5/5/26 2145 59.0   6.8 79   15 52.5   2.0 4.0 S | 182 6.3   2.5 0.00 0.04 52.2   10.1 70.7   5.9 17.2   5.5
Lower Bohn 5/5/26 2145 56.8   6.0 84   11 52.1   2.5 2.3 WSW | 245 4.0   0.9 0.00 0.06 50.2   9.4 70.8   3.9 11.0   0.2
Upper Bohn-North 5/5/26 2145 57.1   5.8 81   19 51.2   0.0 2.2 SSE | 151 4.0   1.4 0.00 0.05 51.1   5.8 69.5   3.8 9.1   1.2
Snell Peak Blk#9 5/5/26 2130 56.3   5.4 83   17 51.2   0.3 2.9 S | 177 5.8   1.6 0.00 0.04 50.6   4.1 68.2   3.7 11.3   1.3
Coyote Lake West 5/5/26 2145 58.0   6.5 79   15 51.7   1.6 3.4 SSW | 200 6.4   2.7 0.00 0.03 51.6   5.9 68.3   4.5 13.2   1.5
Coyote Lake Northeast 5/5/26 2145 57.9   6.5 81   15 52.0   1.8 - - - - - 51.7   5.5 70.2   5.6 -
Coyote Lake East 5/5/26 2145 59.3   6.8 78   17 52.4   1.4 - - - - - 52.4   8.4 70.2   5.2 -
Morgan Valley 5/5/26 2145 52.9   4.6 97   3 52.2   3.8 2.5 ESE | 119 5.6   4.7 0.00 0.01 47.3   0.0 61.4   3.9 22.8   6.2
Mine Pit North 5/5/26 2145 55.2   6.2 87   13 51.4   2.5 3.3 S | 181 7.1   5.6 - - 48.2   2.6 66.8   4.5 17.1   4.5
Mine Pit South 5/5/26 2145 53.8   5.5 89   11 50.7   2.4 3.9 ESE | 119 7.1   1.5 0.00 0.07 47.6   1.1 64.9   1.1 13.4   1.1
Cow Mountain 5/5/26 2145 48.7   6.3 - - 8.6 W | 280 11.6   21.0 0.00 0.04 41.1   0.1 58.0   7.3 29.8   3.3
Ukiah-SE (Ruddick) 5/5/26 2145 56.0   1.9 76   0 48.6   1.8 5.3 N | 5 9.6   0.4 0.00 0.00 51.7   2.5 72.3   11.1 16.8   3.0
Max     60.7 97 53.6 8.6 - 12.6 0.00 0.07 52.4 73.7 29.8
Avg     56.0 82 50.9 3.1 - 6.2 0.00 - - - -
Min     48.7 71 48.2 0.0 - 0.0 0.00 0.00 41.1 58.0 9.1